sensor_id;sensor_type;location;lat;lon;timestamp;temperature;humidity
66401;HTU21D;53211;45.040;38.788;2022-10-15T00:01:10;8.86;67.72
66401;HTU21D;53211;45.040;38.788;2022-10-15T00:03:40;8.83;67.79
66401;HTU21D;53211;45.040;38.788;2022-10-15T00:06:08;8.82;67.84
66401;HTU21D;53211;45.040;38.788;2022-10-15T00:08:35;8.79;67.98
66401;HTU21D;53211;45.040;38.788;2022-10-15T00:11:04;8.78;68.11
66401;HTU21D;53211;45.040;38.788;2022-10-15T00:13:31;8.77;68.15
66401;HTU21D;53211;45.040;38.788;2022-10-15T00:15:57;8.76;68.15
66401;HTU21D;53211;45.040;38.788;2022-10-15T00:18:23;8.73;68.10
66401;HTU21D;53211;45.040;38.788;2022-10-15T00:20:50;8.70;68.10
66401;HTU21D;53211;45.040;38.788;2022-10-15T00:23:15;8.66;0.00
66401;HTU21D;53211;45.040;38.788;2022-10-15T00:25:41;8.65;68.30
66401;HTU21D;53211;45.040;38.788;2022-10-15T00:28:07;8.63;68.34
66401;HTU21D;53211;45.040;38.788;2022-10-15T00:30:33;8.62;68.39
66401;HTU21D;53211;45.040;38.788;2022-10-15T00:32:59;8.60;68.44
66401;HTU21D;53211;45.040;38.788;2022-10-15T00:35:25;8.58;68.46
66401;HTU21D;53211;45.040;38.788;2022-10-15T00:37:51;8.58;68.50
66401;HTU21D;53211;45.040;38.788;2022-10-15T00:40:16;8.57;68.60
66401;HTU21D;53211;45.040;38.788;2022-10-15T00:42:48;8.53;68.57
66401;HTU21D;53211;45.040;38.788;2022-10-15T00:45:14;8.51;68.53
66401;HTU21D;53211;45.040;38.788;2022-10-15T00:47:44;8.47;68.51
66401;HTU21D;53211;45.040;38.788;2022-10-15T00:50:21;8.44;68.50
66401;HTU21D;53211;45.040;38.788;2022-10-15T00:53:04;8.41;68.57
66401;HTU21D;53211;45.040;38.788;2022-10-15T00:55:37;8.35;68.58
66401;HTU21D;53211;45.040;38.788;2022-10-15T00:58:09;8.30;68.59
66401;HTU21D;53211;45.040;38.788;2022-10-15T01:00:35;8.28;68.68
66401;HTU21D;53211;45.040;38.788;2022-10-15T01:03:01;8.24;68.69
66401;HTU21D;53211;45.040;38.788;2022-10-15T01:05:27;8.20;68.73
66401;HTU21D;53211;45.040;38.788;2022-10-15T01:07:53;8.18;68.79
66401;HTU21D;53211;45.040;38.788;2022-10-15T01:10:19;8.15;68.80
66401;HTU21D;53211;45.040;38.788;2022-10-15T01:18:01;8.03;68.85
66401;HTU21D;53211;45.040;38.788;2022-10-15T01:28:52;7.86;69.00
66401;HTU21D;53211;45.040;38.788;2022-10-15T01:34:01;7.82;69.05
66401;HTU21D;53211;45.040;38.788;2022-10-15T01:36:32;7.79;69.06
66401;HTU21D;53211;45.040;38.788;2022-10-15T01:39:11;7.76;69.14
66401;HTU21D;53211;45.040;38.788;2022-10-15T01:44:26;7.72;69.16
66401;HTU21D;53211;45.040;38.788;2022-10-15T01:47:19;7.69;69.18
66401;HTU21D;53211;45.040;38.788;2022-10-15T01:49:48;7.68;69.15
66401;HTU21D;53211;45.040;38.788;2022-10-15T01:52:19;7.65;69.13
66401;HTU21D;53211;45.040;38.788;2022-10-15T01:54:47;7.62;69.16
66401;HTU21D;53211;45.040;38.788;2022-10-15T01:57:15;7.58;69.16
66401;HTU21D;53211;45.040;38.788;2022-10-15T01:59:43;7.57;69.23
66401;HTU21D;53211;45.040;38.788;2022-10-15T02:02:11;7.53;69.25
66401;HTU21D;53211;45.040;38.788;2022-10-15T02:04:38;7.50;69.28
66401;HTU21D;53211;45.040;38.788;2022-10-15T02:07:08;7.46;69.34
66401;HTU21D;53211;45.040;38.788;2022-10-15T02:12:08;7.41;69.47
66401;HTU21D;53211;45.040;38.788;2022-10-15T02:14:43;7.40;69.55
66401;HTU21D;53211;45.040;38.788;2022-10-15T02:17:10;7.38;69.58
66401;HTU21D;53211;45.040;38.788;2022-10-15T02:22:25;7.33;69.70
66401;HTU21D;53211;45.040;38.788;2022-10-15T02:24:56;7.31;69.90
66401;HTU21D;53211;45.040;38.788;2022-10-15T02:27:23;7.30;69.72
66401;HTU21D;53211;45.040;38.788;2022-10-15T02:29:50;7.30;69.71
66401;HTU21D;53211;45.040;38.788;2022-10-15T02:32:19;7.29;69.68
66401;HTU21D;53211;45.040;38.788;2022-10-15T02:34:48;7.27;69.70
66401;HTU21D;53211;45.040;38.788;2022-10-15T02:37:18;7.25;69.72
66401;HTU21D;53211;45.040;38.788;2022-10-15T02:39:45;7.23;69.74
66401;HTU21D;53211;45.040;38.788;2022-10-15T02:42:11;7.19;69.76
66401;HTU21D;53211;45.040;38.788;2022-10-15T02:44:39;7.17;68.21
66401;HTU21D;53211;45.040;38.788;2022-10-15T02:47:06;7.13;69.98
66401;HTU21D;53211;45.040;38.788;2022-10-15T02:49:32;7.10;70.03
66401;HTU21D;53211;45.040;38.788;2022-10-15T02:51:58;7.09;70.06
66401;HTU21D;53211;45.040;38.788;2022-10-15T02:54:24;7.05;70.02
66401;HTU21D;53211;45.040;38.788;2022-10-15T02:56:50;7.03;70.03
66401;HTU21D;53211;45.040;38.788;2022-10-15T02:59:19;7.01;70.01
66401;HTU21D;53211;45.040;38.788;2022-10-15T03:01:45;6.97;70.03
66401;HTU21D;53211;45.040;38.788;2022-10-15T03:04:13;6.93;70.09
66401;HTU21D;53211;45.040;38.788;2022-10-15T03:06:39;6.89;70.10
66401;HTU21D;53211;45.040;38.788;2022-10-15T03:09:05;6.85;70.14
66401;HTU21D;53211;45.040;38.788;2022-10-15T03:11:31;6.83;0.00
66401;HTU21D;53211;45.040;38.788;2022-10-15T03:13:58;6.83;70.26
66401;HTU21D;53211;45.040;38.788;2022-10-15T03:16:24;6.80;70.29
66401;HTU21D;53211;45.040;38.788;2022-10-15T03:18:50;6.78;70.33
66401;HTU21D;53211;45.040;38.788;2022-10-15T03:21:17;6.76;70.40
66401;HTU21D;53211;45.040;38.788;2022-10-15T03:23:43;6.76;70.47
66401;HTU21D;53211;45.040;38.788;2022-10-15T03:26:15;6.78;70.58
66401;HTU21D;53211;45.040;38.788;2022-10-15T03:28:42;6.75;70.56
66401;HTU21D;53211;45.040;38.788;2022-10-15T03:31:08;6.76;70.59
66401;HTU21D;53211;45.040;38.788;2022-10-15T03:33:35;6.76;70.61
66401;HTU21D;53211;45.040;38.788;2022-10-15T03:36:01;6.78;70.66
66401;HTU21D;53211;45.040;38.788;2022-10-15T03:38:27;6.79;70.70
66401;HTU21D;53211;45.040;38.788;2022-10-15T03:40:53;6.80;70.67
66401;HTU21D;53211;45.040;38.788;2022-10-15T03:43:32;6.79;70.70
66401;HTU21D;53211;45.040;38.788;2022-10-15T03:46:05;6.78;70.69
66401;HTU21D;53211;45.040;38.788;2022-10-15T03:48:36;6.76;70.77
66401;HTU21D;53211;45.040;38.788;2022-10-15T03:51:02;6.79;70.84
66401;HTU21D;53211;45.040;38.788;2022-10-15T03:53:28;6.76;70.99
66401;HTU21D;53211;45.040;38.788;2022-10-15T03:55:54;6.76;71.06
66401;HTU21D;53211;45.040;38.788;2022-10-15T03:58:20;6.79;71.11
66401;HTU21D;53211;45.040;38.788;2022-10-15T04:00:54;6.83;71.13
66401;HTU21D;53211;45.040;38.788;2022-10-15T04:03:20;6.85;71.22
66401;HTU21D;53211;45.040;38.788;2022-10-15T04:05:50;6.87;71.29
66401;HTU21D;53211;45.040;38.788;2022-10-15T04:08:17;6.90;71.27
66401;HTU21D;53211;45.040;38.788;2022-10-15T04:10:43;6.93;71.31
66401;HTU21D;53211;45.040;38.788;2022-10-15T04:13:09;6.96;71.35
66401;HTU21D;53211;45.040;38.788;2022-10-15T04:15:39;7.01;71.40
66401;HTU21D;53211;45.040;38.788;2022-10-15T04:18:08;7.03;71.45
66401;HTU21D;53211;45.040;38.788;2022-10-15T04:20:35;7.09;71.48
66401;HTU21D;53211;45.040;38.788;2022-10-15T04:23:11;7.14;71.55
66401;HTU21D;53211;45.040;38.788;2022-10-15T04:25:40;7.18;71.58
66401;HTU21D;53211;45.040;38.788;2022-10-15T04:28:07;7.22;71.54
66401;HTU21D;53211;45.040;38.788;2022-10-15T04:30:36;7.27;71.61
66401;HTU21D;53211;45.040;38.788;2022-10-15T04:33:05;7.32;71.64
66401;HTU21D;53211;45.040;38.788;2022-10-15T04:35:31;7.38;71.73
66401;HTU21D;53211;45.040;38.788;2022-10-15T04:38:06;7.45;71.80
66401;HTU21D;53211;45.040;38.788;2022-10-15T04:40:57;7.53;71.79
66401;HTU21D;53211;45.040;38.788;2022-10-15T04:43:27;7.61;71.90
66401;HTU21D;53211;45.040;38.788;2022-10-15T04:46:01;7.71;0.00
66401;HTU21D;53211;45.040;38.788;2022-10-15T04:48:30;7.77;71.90
66401;HTU21D;53211;45.040;38.788;2022-10-15T04:51:16;7.88;71.97
66401;HTU21D;53211;45.040;38.788;2022-10-15T04:54:01;7.98;72.05
66401;HTU21D;53211;45.040;38.788;2022-10-15T04:56:29;8.07;72.07
66401;HTU21D;53211;45.040;38.788;2022-10-15T04:58:55;8.18;72.27
66401;HTU21D;53211;45.040;38.788;2022-10-15T05:01:23;8.32;72.32
66401;HTU21D;53211;45.040;38.788;2022-10-15T05:04:00;8.49;72.74
66401;HTU21D;53211;45.040;38.788;2022-10-15T05:06:27;8.61;72.70
66401;HTU21D;53211;45.040;38.788;2022-10-15T05:08:58;8.75;72.83
66401;HTU21D;53211;45.040;38.788;2022-10-15T05:11:27;8.91;72.82
66401;HTU21D;53211;45.040;38.788;2022-10-15T05:13:55;9.07;73.32
66401;HTU21D;53211;45.040;38.788;2022-10-15T05:16:24;9.21;72.95
66401;HTU21D;53211;45.040;38.788;2022-10-15T05:18:52;9.34;72.87
66401;HTU21D;53211;45.040;38.788;2022-10-15T05:21:20;9.48;72.96
66401;HTU21D;53211;45.040;38.788;2022-10-15T05:23:50;9.62;73.10
66401;HTU21D;53211;45.040;38.788;2022-10-15T05:26:38;9.75;73.03
66401;HTU21D;53211;45.040;38.788;2022-10-15T05:29:04;9.85;73.12
66401;HTU21D;53211;45.040;38.788;2022-10-15T05:31:32;9.98;73.12
66401;HTU21D;53211;45.040;38.788;2022-10-15T05:34:06;10.09;73.03
66401;HTU21D;53211;45.040;38.788;2022-10-15T05:36:36;10.21;73.04
66401;HTU21D;53211;45.040;38.788;2022-10-15T05:39:03;10.27;72.98
66401;HTU21D;53211;45.040;38.788;2022-10-15T05:41:37;10.41;73.08
66401;HTU21D;53211;45.040;38.788;2022-10-15T05:44:03;10.52;73.19
66401;HTU21D;53211;45.040;38.788;2022-10-15T05:46:29;10.64;73.22
66401;HTU21D;53211;45.040;38.788;2022-10-15T05:48:55;10.73;73.15
66401;HTU21D;53211;45.040;38.788;2022-10-15T05:51:24;10.82;73.04
66401;HTU21D;53211;45.040;38.788;2022-10-15T05:53:54;10.93;73.12
66401;HTU21D;53211;45.040;38.788;2022-10-15T05:56:21;11.01;73.02
66401;HTU21D;53211;45.040;38.788;2022-10-15T05:58:47;11.11;72.96
66401;HTU21D;53211;45.040;38.788;2022-10-15T06:01:13;11.18;72.86
66401;HTU21D;53211;45.040;38.788;2022-10-15T06:03:40;11.28;72.87
66401;HTU21D;53211;45.040;38.788;2022-10-15T06:08:41;11.45;72.68
66401;HTU21D;53211;45.040;38.788;2022-10-15T06:11:07;11.54;72.67
66401;HTU21D;53211;45.040;38.788;2022-10-15T06:13:33;11.60;72.64
66401;HTU21D;53211;45.040;38.788;2022-10-15T06:15:59;11.71;0.00
66401;HTU21D;53211;45.040;38.788;2022-10-15T06:18:25;11.82;72.70
66401;HTU21D;53211;45.040;38.788;2022-10-15T06:20:51;11.90;72.59
66401;HTU21D;53211;45.040;38.788;2022-10-15T06:23:17;12.01;72.65
66401;HTU21D;53211;45.040;38.788;2022-10-15T06:25:43;12.10;72.50
66401;HTU21D;53211;45.040;38.788;2022-10-15T06:28:09;12.16;72.47
66401;HTU21D;53211;45.040;38.788;2022-10-15T06:30:42;12.27;72.43
66401;HTU21D;53211;45.040;38.788;2022-10-15T06:33:08;0.00;72.34
66401;HTU21D;53211;45.040;38.788;2022-10-15T06:35:34;12.43;72.24
66401;HTU21D;53211;45.040;38.788;2022-10-15T06:38:03;12.51;72.11
66401;HTU21D;53211;45.040;38.788;2022-10-15T06:40:30;12.59;72.10
66401;HTU21D;53211;45.040;38.788;2022-10-15T06:43:06;12.71;72.06
66401;HTU21D;53211;45.040;38.788;2022-10-15T06:45:36;12.79;71.98
66401;HTU21D;53211;45.040;38.788;2022-10-15T06:48:07;12.86;71.92
66401;HTU21D;53211;45.040;38.788;2022-10-15T06:50:34;12.92;71.83
66401;HTU21D;53211;45.040;38.788;2022-10-15T06:53:01;13.00;0.00
66401;HTU21D;53211;45.040;38.788;2022-10-15T06:55:27;13.06;71.61
66401;HTU21D;53211;45.040;38.788;2022-10-15T06:57:54;13.12;71.61
66401;HTU21D;53211;45.040;38.788;2022-10-15T07:00:25;13.20;71.61
66401;HTU21D;53211;45.040;38.788;2022-10-15T07:02:52;13.30;71.61
66401;HTU21D;53211;45.040;38.788;2022-10-15T07:05:19;13.38;71.55
66401;HTU21D;53211;45.040;38.788;2022-10-15T07:07:55;13.46;71.35
66401;HTU21D;53211;45.040;38.788;2022-10-15T07:10:25;13.58;71.08
66401;HTU21D;53211;45.040;38.788;2022-10-15T07:12:51;13.64;71.11
66401;HTU21D;53211;45.040;38.788;2022-10-15T07:15:17;13.71;70.92
66401;HTU21D;53211;45.040;38.788;2022-10-15T07:17:47;13.78;70.71
66401;HTU21D;53211;45.040;38.788;2022-10-15T07:20:14;13.84;70.63
66401;HTU21D;53211;45.040;38.788;2022-10-15T07:22:40;13.91;70.63
66401;HTU21D;53211;45.040;38.788;2022-10-15T07:25:06;13.97;70.53
66401;HTU21D;53211;45.040;38.788;2022-10-15T07:27:35;14.08;70.31
66401;HTU21D;53211;45.040;38.788;2022-10-15T07:30:01;14.14;69.98
66401;HTU21D;53211;45.040;38.788;2022-10-15T07:32:27;14.21;69.96
66401;HTU21D;53211;45.040;38.788;2022-10-15T07:34:53;14.27;69.90
66401;HTU21D;53211;45.040;38.788;2022-10-15T07:37:19;14.33;69.90
66401;HTU21D;53211;45.040;38.788;2022-10-15T07:39:45;14.41;69.61
66401;HTU21D;53211;45.040;38.788;2022-10-15T07:42:11;14.49;69.30
66401;HTU21D;53211;45.040;38.788;2022-10-15T07:44:37;14.56;69.10
66401;HTU21D;53211;45.040;38.788;2022-10-15T07:47:09;14.62;69.13
66401;HTU21D;53211;45.040;38.788;2022-10-15T07:49:35;14.67;68.97
66401;HTU21D;53211;45.040;38.788;2022-10-15T07:52:01;14.73;69.00
66401;HTU21D;53211;45.040;38.788;2022-10-15T07:54:28;14.79;68.78
66401;HTU21D;53211;45.040;38.788;2022-10-15T07:56:54;14.84;68.55
66401;HTU21D;53211;45.040;38.788;2022-10-15T07:59:20;14.91;68.39
66401;HTU21D;53211;45.040;38.788;2022-10-15T08:01:46;14.97;68.35
66401;HTU21D;53211;45.040;38.788;2022-10-15T08:04:12;15.02;68.23
66401;HTU21D;53211;45.040;38.788;2022-10-15T08:06:39;15.10;67.78
66401;HTU21D;53211;45.040;38.788;2022-10-15T08:09:05;15.14;67.84
66401;HTU21D;53211;45.040;38.788;2022-10-15T08:11:31;15.18;67.89
66401;HTU21D;53211;45.040;38.788;2022-10-15T08:13:57;15.26;67.88
66401;HTU21D;53211;45.040;38.788;2022-10-15T08:16:23;15.34;67.44
66401;HTU21D;53211;45.040;38.788;2022-10-15T08:18:58;15.40;67.40
66401;HTU21D;53211;45.040;38.788;2022-10-15T08:21:25;15.47;67.13
66401;HTU21D;53211;45.040;38.788;2022-10-15T08:23:52;15.54;67.07
66401;HTU21D;53211;45.040;38.788;2022-10-15T08:26:21;15.58;66.81
66401;HTU21D;53211;45.040;38.788;2022-10-15T08:28:48;15.65;66.60
66401;HTU21D;53211;45.040;38.788;2022-10-15T08:31:16;15.70;66.49
66401;HTU21D;53211;45.040;38.788;2022-10-15T08:33:43;15.75;66.30
66401;HTU21D;53211;45.040;38.788;2022-10-15T08:36:11;15.82;66.24
66401;HTU21D;53211;45.040;38.788;2022-10-15T08:38:36;15.88;66.30
66401;HTU21D;53211;45.040;38.788;2022-10-15T08:41:10;15.92;65.88
66401;HTU21D;53211;45.040;38.788;2022-10-15T08:43:42;16.02;65.81
66401;HTU21D;53211;45.040;38.788;2022-10-15T08:46:30;16.07;65.72
66401;HTU21D;53211;45.040;38.788;2022-10-15T08:48:59;16.14;65.71
66401;HTU21D;53211;45.040;38.788;2022-10-15T08:51:33;16.20;65.67
66401;HTU21D;53211;45.040;38.788;2022-10-15T08:54:04;16.26;65.45
66401;HTU21D;53211;45.040;38.788;2022-10-15T08:56:36;16.29;65.58
66401;HTU21D;53211;45.040;38.788;2022-10-15T09:04:39;16.55;65.35
66401;HTU21D;53211;45.040;38.788;2022-10-15T09:07:13;16.61;65.29
66401;HTU21D;53211;45.040;38.788;2022-10-15T09:10:12;16.70;65.15
66401;HTU21D;53211;45.040;38.788;2022-10-15T09:12:59;16.76;64.97
66401;HTU21D;53211;45.040;38.788;2022-10-15T09:15:27;16.82;64.52
66401;HTU21D;53211;45.040;38.788;2022-10-15T09:17:57;16.87;64.52
66401;HTU21D;53211;45.040;38.788;2022-10-15T09:20:34;16.90;64.07
66401;HTU21D;53211;45.040;38.788;2022-10-15T09:23:01;16.92;64.09
66401;HTU21D;53211;45.040;38.788;2022-10-15T09:25:34;16.96;64.20
66401;HTU21D;53211;45.040;38.788;2022-10-15T09:28:10;17.01;64.24
66401;HTU21D;53211;45.040;38.788;2022-10-15T09:30:51;17.07;64.36
66401;HTU21D;53211;45.040;38.788;2022-10-15T09:44:12;17.41;63.08
66401;HTU21D;53211;45.040;38.788;2022-10-15T09:46:46;17.44;62.91
66401;HTU21D;53211;45.040;38.788;2022-10-15T09:49:31;17.52;62.77
66401;HTU21D;53211;45.040;38.788;2022-10-15T09:52:24;17.58;62.61
66401;HTU21D;53211;45.040;38.788;2022-10-15T09:57:32;17.69;62.48
66401;HTU21D;53211;45.040;38.788;2022-10-15T10:00:01;17.72;62.33
66401;HTU21D;53211;45.040;38.788;2022-10-15T10:03:14;17.78;62.45
66401;HTU21D;53211;45.040;38.788;2022-10-15T10:05:40;17.81;62.65
66401;HTU21D;53211;45.040;38.788;2022-10-15T10:08:09;17.90;62.36
66401;HTU21D;53211;45.040;38.788;2022-10-15T10:10:36;17.96;62.21
66401;HTU21D;53211;45.040;38.788;2022-10-15T10:13:17;18.04;61.59
66401;HTU21D;53211;45.040;38.788;2022-10-15T10:15:44;18.08;61.58
66401;HTU21D;53211;45.040;38.788;2022-10-15T10:18:24;18.12;60.79
66401;HTU21D;53211;45.040;38.788;2022-10-15T10:21:01;18.19;60.32
66401;HTU21D;53211;45.040;38.788;2022-10-15T10:23:37;18.23;0.00
66401;HTU21D;53211;45.040;38.788;2022-10-15T10:26:08;18.30;60.73
66401;HTU21D;53211;45.040;38.788;2022-10-15T10:29:04;18.51;61.04
66401;HTU21D;53211;45.040;38.788;2022-10-15T10:31:31;18.95;60.83
66401;HTU21D;53211;45.040;38.788;2022-10-15T10:34:01;19.58;60.74
66401;HTU21D;53211;45.040;38.788;2022-10-15T10:36:30;20.29;58.71
66401;HTU21D;53211;45.040;38.788;2022-10-15T10:39:00;20.90;57.45
66401;HTU21D;53211;45.040;38.788;2022-10-15T10:41:46;21.45;56.71
66401;HTU21D;53211;45.040;38.788;2022-10-15T10:44:19;22.11;55.06
66401;HTU21D;53211;45.040;38.788;2022-10-15T10:49:36;23.02;53.39
66401;HTU21D;53211;45.040;38.788;2022-10-15T10:52:36;23.35;52.64
66401;HTU21D;53211;45.040;38.788;2022-10-15T10:55:16;23.16;52.30
66401;HTU21D;53211;45.040;38.788;2022-10-15T11:00:34;22.42;53.97
66401;HTU21D;53211;45.040;38.788;2022-10-15T11:03:03;22.08;54.07
66401;HTU21D;53211;45.040;38.788;2022-10-15T11:05:33;21.75;54.33
66401;HTU21D;53211;45.040;38.788;2022-10-15T11:11:28;20.95;54.91
66401;HTU21D;53211;45.040;38.788;2022-10-15T11:16:59;20.57;55.92
66401;HTU21D;53211;45.040;38.788;2022-10-15T11:31:28;20.28;56.03
66401;HTU21D;53211;45.040;38.788;2022-10-15T11:37:18;20.19;56.29
66401;HTU21D;53211;45.040;38.788;2022-10-15T11:42:57;20.30;55.76
66401;HTU21D;53211;45.040;38.788;2022-10-15T11:55:40;20.03;55.42
66401;HTU21D;53211;45.040;38.788;2022-10-15T12:00:57;19.87;55.63
66401;HTU21D;53211;45.040;38.788;2022-10-15T12:03:27;19.81;55.86
66401;HTU21D;53211;45.040;38.788;2022-10-15T12:06:04;19.84;56.21
66401;HTU21D;53211;45.040;38.788;2022-10-15T12:08:37;20.02;56.33
66401;HTU21D;53211;45.040;38.788;2022-10-15T12:14:19;20.41;55.58
66401;HTU21D;53211;45.040;38.788;2022-10-15T12:19:53;20.32;55.72
66401;HTU21D;53211;45.040;38.788;2022-10-15T12:23:01;20.32;55.86
66401;HTU21D;53211;45.040;38.788;2022-10-15T12:30:36;21.69;56.84
66401;HTU21D;53211;45.040;38.788;2022-10-15T12:33:19;22.51;56.12
66401;HTU21D;53211;45.040;38.788;2022-10-15T12:38:59;24.16;53.48
66401;HTU21D;53211;45.040;38.788;2022-10-15T12:41:40;24.88;52.53
66401;HTU21D;53211;45.040;38.788;2022-10-15T12:44:26;25.43;51.73
66401;HTU21D;53211;45.040;38.788;2022-10-15T12:46:52;25.83;51.01
66401;HTU21D;53211;45.040;38.788;2022-10-15T12:57:50;25.04;48.73
66401;HTU21D;53211;45.040;38.788;2022-10-15T13:02:53;23.50;50.40
66401;HTU21D;53211;45.040;38.788;2022-10-15T13:07:55;22.21;51.67
66401;HTU21D;53211;45.040;38.788;2022-10-15T13:10:28;21.68;52.21
66401;HTU21D;53211;45.040;38.788;2022-10-15T13:12:56;21.22;52.72
66401;HTU21D;53211;45.040;38.788;2022-10-15T13:15:24;20.87;53.30
66401;HTU21D;53211;45.040;38.788;2022-10-15T13:17:51;20.56;53.70
66401;HTU21D;53211;45.040;38.788;2022-10-15T13:20:26;20.29;54.17
66401;HTU21D;53211;45.040;38.788;2022-10-15T13:22:53;20.07;54.45
66401;HTU21D;53211;45.040;38.788;2022-10-15T13:25:31;19.87;54.45
66401;HTU21D;53211;45.040;38.788;2022-10-15T13:27:58;19.66;54.68
66401;HTU21D;53211;45.040;38.788;2022-10-15T13:30:24;19.50;54.89
66401;HTU21D;53211;45.040;38.788;2022-10-15T13:32:50;19.35;55.00
66401;HTU21D;53211;45.040;38.788;2022-10-15T13:35:17;19.22;55.32
66401;HTU21D;53211;45.040;38.788;2022-10-15T13:37:44;19.14;55.38
66401;HTU21D;53211;45.040;38.788;2022-10-15T13:40:21;19.07;55.56
66401;HTU21D;53211;45.040;38.788;2022-10-15T13:43:00;19.01;55.60
66401;HTU21D;53211;45.040;38.788;2022-10-15T13:45:27;18.97;55.59
66401;HTU21D;53211;45.040;38.788;2022-10-15T13:47:54;18.93;55.59
66401;HTU21D;53211;45.040;38.788;2022-10-15T13:50:24;18.86;55.78
66401;HTU21D;53211;45.040;38.788;2022-10-15T13:55:29;18.65;55.63
66401;HTU21D;53211;45.040;38.788;2022-10-15T13:57:59;18.55;55.78
66401;HTU21D;53211;45.040;38.788;2022-10-15T14:00:27;18.42;56.02
66401;HTU21D;53211;45.040;38.788;2022-10-15T14:03:06;18.33;56.19
66401;HTU21D;53211;45.040;38.788;2022-10-15T14:05:35;18.27;56.40
66401;HTU21D;53211;45.040;38.788;2022-10-15T14:08:04;18.26;56.56
66401;HTU21D;53211;45.040;38.788;2022-10-15T14:10:30;18.26;56.44
66401;HTU21D;53211;45.040;38.788;2022-10-15T14:12:56;18.25;56.47
66401;HTU21D;53211;45.040;38.788;2022-10-15T14:18:13;18.25;56.45
66401;HTU21D;53211;45.040;38.788;2022-10-15T14:20:43;18.23;56.51
66401;HTU21D;53211;45.040;38.788;2022-10-15T14:23:23;18.20;56.55
66401;HTU21D;53211;45.040;38.788;2022-10-15T14:26:07;18.14;56.58
66401;HTU21D;53211;45.040;38.788;2022-10-15T14:28:35;18.11;56.57
66401;HTU21D;53211;45.040;38.788;2022-10-15T14:31:02;18.07;56.71
66401;HTU21D;53211;45.040;38.788;2022-10-15T14:38:39;17.96;56.74
66401;HTU21D;53211;45.040;38.788;2022-10-15T14:41:30;17.92;56.84
66401;HTU21D;53211;45.040;38.788;2022-10-15T14:44:03;17.87;56.86
66401;HTU21D;53211;45.040;38.788;2022-10-15T14:46:37;17.83;56.96
66401;HTU21D;53211;45.040;38.788;2022-10-15T14:49:23;17.79;56.86
66401;HTU21D;53211;45.040;38.788;2022-10-15T14:51:55;17.72;56.86
66401;HTU21D;53211;45.040;38.788;2022-10-15T14:54:24;17.64;56.94
66401;HTU21D;53211;45.040;38.788;2022-10-15T14:56:51;17.55;57.06
66401;HTU21D;53211;45.040;38.788;2022-10-15T14:59:19;17.48;57.12
66401;HTU21D;53211;45.040;38.788;2022-10-15T15:01:56;17.43;57.21
66401;HTU21D;53211;45.040;38.788;2022-10-15T15:06:58;17.39;57.41
66401;HTU21D;53211;45.040;38.788;2022-10-15T15:09:24;17.40;57.34
66401;HTU21D;53211;45.040;38.788;2022-10-15T15:11:50;17.38;57.36
66401;HTU21D;53211;45.040;38.788;2022-10-15T15:14:34;17.40;57.35
66401;HTU21D;53211;45.040;38.788;2022-10-15T15:17:00;17.37;57.40
66401;HTU21D;53211;45.040;38.788;2022-10-15T15:19:25;17.38;57.35
66401;HTU21D;53211;45.040;38.788;2022-10-15T15:21:51;17.34;57.48
66401;HTU21D;53211;45.040;38.788;2022-10-15T15:24:17;17.32;57.47
66401;HTU21D;53211;45.040;38.788;2022-10-15T15:26:43;17.32;57.51
66401;HTU21D;53211;45.040;38.788;2022-10-15T15:29:12;17.28;57.52
66401;HTU21D;53211;45.040;38.788;2022-10-15T15:31:38;17.25;57.57
66401;HTU21D;53211;45.040;38.788;2022-10-15T15:34:04;17.24;57.59
66401;HTU21D;53211;45.040;38.788;2022-10-15T15:36:30;17.20;57.62
66401;HTU21D;53211;45.040;38.788;2022-10-15T15:38:56;17.15;57.71
66401;HTU21D;53211;45.040;38.788;2022-10-15T15:41:23;17.09;57.73
66401;HTU21D;53211;45.040;38.788;2022-10-15T15:43:50;17.04;57.77
66401;HTU21D;53211;45.040;38.788;2022-10-15T15:46:16;17.00;57.84
66401;HTU21D;53211;45.040;38.788;2022-10-15T15:48:42;16.94;57.94
66401;HTU21D;53211;45.040;38.788;2022-10-15T15:53:40;16.85;58.10
66401;HTU21D;53211;45.040;38.788;2022-10-15T15:56:06;16.80;58.18
66401;HTU21D;53211;45.040;38.788;2022-10-15T15:58:32;16.77;58.24
66401;HTU21D;53211;45.040;38.788;2022-10-15T16:00:57;16.76;58.32
66401;HTU21D;53211;45.040;38.788;2022-10-15T16:03:23;16.75;58.33
66401;HTU21D;53211;45.040;38.788;2022-10-15T16:05:49;16.72;58.40
66401;HTU21D;53211;45.040;38.788;2022-10-15T16:08:16;16.70;58.39
66401;HTU21D;53211;45.040;38.788;2022-10-15T16:10:41;16.65;58.44
66401;HTU21D;53211;45.040;38.788;2022-10-15T16:13:07;16.64;58.50
66401;HTU21D;53211;45.040;38.788;2022-10-15T16:15:33;16.61;58.55
66401;HTU21D;53211;45.040;38.788;2022-10-15T16:17:59;16.56;58.58
66401;HTU21D;53211;45.040;38.788;2022-10-15T16:20:25;16.49;58.64
66401;HTU21D;53211;45.040;38.788;2022-10-15T16:22:51;16.43;58.72
66401;HTU21D;53211;45.040;38.788;2022-10-15T16:25:17;16.35;58.82
66401;HTU21D;53211;45.040;38.788;2022-10-15T16:27:43;16.27;58.89
66401;HTU21D;53211;45.040;38.788;2022-10-15T16:30:16;16.20;58.98
66401;HTU21D;53211;45.040;38.788;2022-10-15T16:32:42;16.14;59.10
66401;HTU21D;53211;45.040;38.788;2022-10-15T16:35:08;16.07;59.15
66401;HTU21D;53211;45.040;38.788;2022-10-15T16:37:34;16.00;59.25
66401;HTU21D;53211;45.040;38.788;2022-10-15T16:40:00;15.96;59.36
66401;HTU21D;53211;45.040;38.788;2022-10-15T16:42:26;15.91;59.44
66401;HTU21D;53211;45.040;38.788;2022-10-15T16:44:51;15.86;59.50
66401;HTU21D;53211;45.040;38.788;2022-10-15T16:47:17;15.80;59.57
66401;HTU21D;53211;45.040;38.788;2022-10-15T16:49:43;15.74;59.62
66401;HTU21D;53211;45.040;38.788;2022-10-15T16:52:09;15.70;59.75
66401;HTU21D;53211;45.040;38.788;2022-10-15T16:54:35;15.66;59.85
66401;HTU21D;53211;45.040;38.788;2022-10-15T16:57:01;15.62;59.84
66401;HTU21D;53211;45.040;38.788;2022-10-15T16:59:31;15.56;59.90
66401;HTU21D;53211;45.040;38.788;2022-10-15T17:02:00;15.47;59.93
66401;HTU21D;53211;45.040;38.788;2022-10-15T17:04:26;15.41;59.97
66401;HTU21D;53211;45.040;38.788;2022-10-15T17:06:51;15.33;118.99
66401;HTU21D;53211;45.040;38.788;2022-10-15T17:09:19;15.27;60.15
66401;HTU21D;53211;45.040;38.788;2022-10-15T17:11:45;15.21;60.22
66401;HTU21D;53211;45.040;38.788;2022-10-15T17:14:16;15.13;60.32
66401;HTU21D;53211;45.040;38.788;2022-10-15T17:16:48;15.10;60.35
66401;HTU21D;53211;45.040;38.788;2022-10-15T17:19:16;0.00;60.38
66401;HTU21D;53211;45.040;38.788;2022-10-15T17:21:42;15.01;60.47
66401;HTU21D;53211;45.040;38.788;2022-10-15T17:24:09;14.96;60.54
66401;HTU21D;53211;45.040;38.788;2022-10-15T17:26:35;14.95;60.54
66401;HTU21D;53211;45.040;38.788;2022-10-15T17:29:03;14.92;60.56
66401;HTU21D;53211;45.040;38.788;2022-10-15T17:31:29;14.85;60.64
66401;HTU21D;53211;45.040;38.788;2022-10-15T17:33:58;14.82;60.64
66401;HTU21D;53211;45.040;38.788;2022-10-15T17:36:27;14.80;60.66